Time;durP1;ratioP1;P1;durP2;ratioP2;P2;SDS_P1;SDS_P2;PMS_P1;PMS_P2;Temp;Humidity;BMP_temperature;BMP_pressure;BME280_temperature;BME280_humidity;BME280_pressure;Samples;Min_cycle;Max_cycle;Signal;HPM_P1;HPM_P2
2023/04/03 00:02:12;;;;;;;12.60;7.80;;;;;;;2.06;89.63;102925.84;4933366;28;20087;-71
2023/04/03 00:04:37;;;;;;;11.63;6.45;;;;;;;1.98;89.60;102926.81;4955686;28;20541;-72
2023/04/03 00:07:02;;;;;;;10.90;6.20;;;;;;;1.94;90.21;102924.72;4954588;28;20600;-65
2023/04/03 00:09:27;;;;;;;9.13;6.22;;;;;;;1.91;90.40;102931.41;4952328;28;20027;-65
2023/04/03 00:11:53;;;;;;;8.68;5.88;;;;;;;1.89;89.58;102922.63;4923652;29;20061;-65
2023/04/03 00:14:18;;;;;;;10.85;6.22;;;;;;;1.90;90.11;102919.28;4931341;29;20027;-65
2023/04/03 00:16:43;;;;;;;11.82;7.07;;;;;;;1.92;89.73;102927.16;4934990;29;20050;-65
2023/04/03 00:19:11;;;;;;;10.20;5.97;;;;;;;1.92;89.77;102938.31;4935912;29;20170;-65
2023/04/03 00:21:36;;;;;;;8.35;5.93;;;;;;;1.91;89.75;102940.75;4935691;29;20032;-65
2023/04/03 00:24:02;;;;;;;13.45;7.63;;;;;;;1.90;89.70;102936.41;4935127;29;20038;-65
2023/04/03 00:26:27;;;;;;;11.98;8.02;;;;;;;1.92;89.93;102934.84;4935186;29;20023;-65
2023/04/03 00:28:53;;;;;;;13.88;8.15;;;;;;;1.92;89.58;102938.31;4935427;28;20035;-65
2023/04/03 00:31:19;;;;;;;12.32;7.28;;;;;;;1.94;89.12;102935.00;4932871;28;20074;-64
2023/04/03 00:33:44;;;;;;;10.93;7.10;;;;;;;1.94;88.69;102935.94;4931619;29;20466;-65
2023/04/03 00:36:11;;;;;;;13.35;8.07;;;;;;;1.96;88.79;102938.63;4935022;29;20043;-65
2023/04/03 00:38:36;;;;;;;10.38;7.63;;;;;;;1.95;88.79;102945.41;4935408;29;20035;-65
2023/04/03 00:41:02;;;;;;;11.85;7.95;;;;;;;1.96;88.77;102938.63;4935907;29;20042;-65
2023/04/03 00:43:28;;;;;;;11.60;7.47;;;;;;;1.96;88.56;102948.91;4919183;29;20028;-65
2023/04/03 00:45:58;;;;;;;14.57;7.53;;;;;;;1.92;88.85;102940.91;4932602;29;20027;-64
2023/04/03 00:48:29;;;;;;;;;;;;;;;2.00;87.80;102944.19;4937837;29;20023;-64
2023/04/03 00:50:55;;;;;;;11.82;8.02;;;;;;;1.95;88.36;102950.56;4934524;29;20637;-64
2023/04/03 00:53:28;;;;;;;14.77;8.50;;;;;;;1.92;88.90;102942.56;4936287;29;20387;-64
2023/04/03 00:55:55;;;;;;;12.48;8.05;;;;;;;1.94;88.65;102953.00;4932731;29;20031;-65
2023/04/03 00:58:28;;;;;;;13.27;8.50;;;;;;;1.89;88.58;102958.59;4932118;29;20380;-65
2023/04/03 01:00:57;;;;;;;9.32;6.50;;;;;;;1.87;88.50;102944.72;4931686;29;20027;-65
2023/04/03 01:03:23;;;;;;;;;;;;;;;1.94;87.99;102953.00;4932702;29;20078;-64
2023/04/03 01:05:49;;;;;;;9.50;6.18;;;;;;;1.86;87.73;102948.03;4936618;29;19963;-65
2023/04/03 01:08:15;;;;;;;9.48;6.32;;;;;;;1.80;87.76;102955.19;4936912;29;20514;-64
2023/04/03 01:10:40;;;;;;;11.43;6.70;;;;;;;1.77;88.41;102947.19;4919985;28;20051;-65
2023/04/03 01:13:41;;;;;;;10.35;6.53;;;;;;;1.77;88.57;102954.91;4956009;28;20491;-65
2023/04/03 01:16:07;;;;;;;13.57;7.82;;;;;;;1.73;88.65;102955.38;4874682;29;20055;-65
2023/04/03 01:18:35;;;;;;;10.93;6.70;;;;;;;1.69;88.70;102954.19;4938295;28;20051;-65
2023/04/03 01:21:41;;;;;;;10.27;6.70;;;;;;;1.66;88.55;102953.00;4955985;28;20038;-65
2023/04/03 01:24:36;;;;;;;10.20;6.65;;;;;;;1.61;89.08;102955.16;4955442;28;20043;-65
2023/04/03 01:27:05;;;;;;;11.77;7.13;;;;;;;1.56;88.62;102957.28;4957347;28;20030;-64
2023/04/03 01:29:30;;;;;;;9.20;6.45;;;;;;;1.53;88.69;102959.53;4954816;28;20042;-65
2023/04/03 01:31:58;;;;;;;13.60;7.72;;;;;;;1.51;89.00;102960.19;4956839;28;20570;-65
2023/04/03 01:34:24;;;;;;;12.63;7.63;;;;;;;1.49;88.70;102965.19;4956186;28;20105;-64
2023/04/03 01:36:50;;;;;;;11.13;7.88;;;;;;;1.47;88.88;102956.41;4956887;28;20081;-65
2023/04/03 01:39:16;;;;;;;12.75;7.85;;;;;;;1.47;89.50;102964.09;4954808;28;20027;-64
2023/04/03 01:41:42;;;;;;;12.07;7.88;;;;;;;1.47;89.19;102963.22;4954696;28;20038;-65
2023/04/03 01:44:07;;;;;;;14.55;8.27;;;;;;;1.46;89.36;102958.81;4951782;28;20049;-65
2023/04/03 01:46:32;;;;;;;11.45;7.88;;;;;;;1.44;89.51;102963.81;4951777;28;20028;-65
2023/04/03 01:48:57;;;;;;;11.82;6.90;;;;;;;1.43;90.46;102959.44;4953669;28;20031;-65
2023/04/03 01:51:23;;;;;;;12.05;6.95;;;;;;;1.36;89.71;102962.19;4996602;23;20532;-96
2023/04/03 01:53:52;;;;;;;10.30;6.90;;;;;;;1.25;90.37;102957.72;4964407;28;20025;-95
2023/04/03 01:56:20;;;;;;;11.27;7.33;;;;;;;1.26;91.21;102959.50;4977486;28;20026;-95
2023/04/03 01:58:51;;;;;;;11.50;7.72;;;;;;;1.26;91.14;102955.28;4978458;28;20030;-96
2023/04/03 02:01:17;;;;;;;11.95;7.65;;;;;;;1.26;90.65;102956.94;4979627;28;20026;-96
2023/04/03 02:03:42;;;;;;;11.57;8.07;;;;;;;1.29;90.21;102957.22;4980465;28;20077;-95
2023/04/03 02:06:08;;;;;;;13.38;8.43;;;;;;;1.31;91.14;102955.72;4983351;28;20126;-96
2023/04/03 02:08:34;;;;;;;14.52;8.15;;;;;;;1.34;90.59;102956.00;4982422;28;20484;-94
2023/04/03 02:10:59;;;;;;;14.55;8.65;;;;;;;1.38;90.69;102958.09;4979491;28;20456;-95
2023/04/03 02:13:27;;;;;;;16.60;9.13;;;;;;;1.42;90.75;102956.72;4984483;28;20032;-94
2023/04/03 02:15:53;;;;;;;14.35;9.10;;;;;;;1.42;90.66;102960.22;4982904;28;20049;-94
2023/04/03 02:18:18;;;;;;;15.35;8.82;;;;;;;1.44;90.25;102961.25;4982846;28;20022;-96
2023/04/03 02:20:46;;;;;;;13.45;8.80;;;;;;;1.46;90.74;102962.28;4980608;28;20053;-96
2023/04/03 02:23:15;;;;;;;14.30;9.85;;;;;;;1.47;89.62;102956.41;4981936;28;20026;-95
2023/04/03 02:25:43;;;;;;;13.82;8.93;;;;;;;1.49;89.63;102956.53;4980694;28;20128;-96
2023/04/03 02:28:11;;;;;;;12.93;8.05;;;;;;;1.48;89.84;102962.47;4979131;28;20026;-95
2023/04/03 02:30:36;;;;;;;12.30;7.97;;;;;;;1.45;89.73;102957.94;4978701;28;20076;-96
2023/04/03 02:33:02;;;;;;;13.20;8.32;;;;;;;1.45;89.54;102968.22;4977314;28;20037;-96
2023/04/03 02:35:30;;;;;;;13.60;7.70;;;;;;;1.45;89.60;102968.22;4981061;28;20073;-96
2023/04/03 02:37:55;;;;;;;13.23;8.00;;;;;;;1.44;89.39;102971.53;4975909;28;20030;-96
2023/04/03 02:40:21;;;;;;;13.55;9.00;;;;;;;1.43;89.54;102972.28;4984476;28;20041;-96
2023/04/03 02:42:52;;;;;;;13.98;8.13;;;;;;;1.43;89.55;102974.84;4975191;28;20028;-96
2023/04/03 02:45:18;;;;;;;14.73;8.65;;;;;;;1.41;89.81;102973.81;4977288;28;20035;-95
2023/04/03 02:47:46;;;;;;;12.15;8.23;;;;;;;1.41;89.95;102981.50;4966868;28;20538;-96
2023/04/03 02:50:19;;;;;;;12.52;8.07;;;;;;;1.40;90.09;102979.69;4960474;28;20049;-95
2023/04/03 02:52:44;;;;;;;13.95;8.15;;;;;;;1.39;90.11;102980.44;4962175;28;20133;-96
2023/04/03 02:55:14;;;;;;;13.40;8.30;;;;;;;1.38;89.23;102978.66;4977933;28;20069;-96
2023/04/03 02:57:42;;;;;;;10.85;7.53;;;;;;;1.40;89.72;102984.84;4962630;28;20051;-95
2023/04/03 03:00:09;;;;;;;12.65;7.57;;;;;;;1.39;89.73;102983.00;4976854;28;20026;-95
2023/04/03 03:02:35;;;;;;;11.00;7.60;;;;;;;1.38;89.99;102986.38;4961758;28;20396;-96
2023/04/03 03:05:00;;;;;;;11.48;7.35;;;;;;;1.39;89.51;102988.16;4958459;28;20031;-96
2023/04/03 03:07:28;;;;;;;11.50;6.93;;;;;;;1.37;89.89;102984.53;4979794;28;20026;-96
2023/04/03 03:09:54;;;;;;;11.45;7.15;;;;;;;1.39;89.37;102980.44;4961300;28;20034;-96
2023/04/03 03:12:21;;;;;;;12.48;7.10;;;;;;;1.36;89.40;102973.38;4983032;28;20030;-96
2023/04/03 03:14:52;;;;;;;10.10;6.20;;;;;;;1.37;89.60;102979.41;4968235;28;20073;-96
2023/04/03 03:17:17;;;;;;;10.07;6.03;;;;;;;1.36;89.60;102981.09;4977595;28;20037;-96
2023/04/03 03:19:43;;;;;;;12.07;6.55;;;;;;;1.32;89.32;102967.81;4976382;28;20030;-95
2023/04/03 03:22:09;;;;;;;11.68;7.00;;;;;;;1.29;89.18;102975.19;4981099;28;20022;-95
2023/04/03 03:24:34;;;;;;;11.98;6.50;;;;;;;1.26;89.29;102970.69;4988284;28;20037;-95
2023/04/03 03:27:00;;;;;;;11.80;6.57;;;;;;;1.25;89.17;102973.13;4955992;28;20505;-96
2023/04/03 03:29:28;;;;;;;10.20;6.05;;;;;;;1.25;89.89;102981.72;4961095;28;20094;-96
2023/04/03 03:31:53;;;;;;;11.10;5.97;;;;;;;1.21;88.89;102975.34;4961060;28;20038;-96
2023/04/03 03:34:28;;;;;;;10.05;6.07;;;;;;;1.19;89.01;102984.59;4959768;28;20030;-96
2023/04/03 03:36:55;;;;;;;19.27;7.05;;;;;;;1.17;89.17;102988.69;4964792;28;20034;-95
2023/04/03 03:39:24;;;;;;;10.60;5.90;;;;;;;1.14;89.61;102990.94;4961876;28;20023;-95
2023/04/03 03:41:55;;;;;;;10.20;5.90;;;;;;;1.11;90.01;102988.06;4959011;28;20033;-96
2023/04/03 03:44:28;;;;;;;8.73;5.30;;;;;;;1.08;89.84;102990.34;4957408;28;20085;-95
2023/04/03 03:46:54;;;;;;;9.63;5.53;;;;;;;1.10;89.62;103001.69;4993347;28;20038;-96
2023/04/03 03:49:23;;;;;;;10.23;5.20;;;;;;;1.08;89.39;103002.28;4979224;28;20031;-95
2023/04/03 03:51:51;;;;;;;9.77;5.47;;;;;;;1.07;89.11;103001.38;4946260;28;20042;-96
2023/04/03 03:54:17;;;;;;;8.57;4.90;;;;;;;1.03;89.56;103007.00;4941079;28;20025;-96
2023/04/03 03:56:42;;;;;;;7.63;4.95;;;;;;;1.03;89.86;103010.44;4935524;28;20110;-96
2023/04/03 03:59:08;;;;;;;10.50;5.45;;;;;;;1.02;90.07;103010.31;4952148;28;20042;-95
2023/04/03 04:01:36;;;;;;;8.52;4.75;;;;;;;1.01;90.23;103008.47;4935894;28;20037;-95
2023/04/03 04:04:02;;;;;;;9.45;4.82;;;;;;;1.00;89.63;103014.38;4970959;28;20469;-96
2023/04/03 04:06:27;;;;;;;9.15;4.65;;;;;;;1.00;89.61;103011.78;4940344;28;20055;-95
2023/04/03 04:08:56;;;;;;;7.22;4.38;;;;;;;0.99;89.67;103010.91;4937307;28;20047;-94
2023/04/03 04:11:29;;;;;;;7.37;4.30;;;;;;;0.98;89.93;103008.19;4940706;28;20076;-95
2023/04/03 04:13:59;;;;;;;7.90;4.03;;;;;;;0.96;89.24;103004.59;4970974;28;20019;-95
2023/04/03 04:16:28;;;;;;;7.90;4.40;;;;;;;0.95;89.90;103007.91;4939583;28;20034;-96
2023/04/03 04:18:53;;;;;;;10.07;4.70;;;;;;;0.95;89.80;103010.47;4937165;28;20114;-96
2023/04/03 04:21:25;;;;;;;8.88;4.32;;;;;;;0.94;89.16;103007.00;4937032;28;20114;-95
2023/04/03 04:23:51;;;;;;;7.78;4.28;;;;;;;0.94;89.16;103016.34;4967676;28;20019;-95
2023/04/03 04:26:20;;;;;;;9.23;4.13;;;;;;;0.93;89.37;103017.09;4940624;28;20074;-96
2023/04/03 04:28:45;;;;;;;9.20;4.35;;;;;;;0.92;89.07;103011.06;4933120;28;20039;-96
2023/04/03 04:31:10;;;;;;;8.63;4.22;;;;;;;0.90;89.29;103004.88;4940822;28;20034;-96
2023/04/03 04:33:36;;;;;;;8.00;4.60;;;;;;;0.90;89.82;103006.53;4939778;28;20019;-95
2023/04/03 04:36:01;;;;;;;7.40;4.40;;;;;;;0.89;89.56;103007.31;4951122;28;20053;-96
2023/04/03 04:38:31;;;;;;;9.45;4.22;;;;;;;0.87;89.88;103009.72;4943623;28;20023;-95
2023/04/03 04:40:56;;;;;;;9.07;3.80;;;;;;;0.85;89.58;103006.09;4932572;28;20083;-96
2023/04/03 04:43:27;;;;;;;6.32;3.97;;;;;;;0.85;89.83;103007.00;4944159;28;20015;-96
2023/04/03 04:46:03;;;;;;;7.90;3.85;;;;;;;0.86;89.68;103019.06;4938366;28;20037;-95
2023/04/03 04:48:33;;;;;;;8.00;4.30;;;;;;;0.85;89.48;103022.41;4935561;29;20434;-95
2023/04/03 04:51:01;;;;;;;8.93;4.10;;;;;;;0.83;90.06;103020.44;4944774;28;20058;-95
2023/04/03 04:53:29;;;;;;;7.57;4.00;;;;;;;0.84;90.29;103019.66;4939338;28;20019;-96
2023/04/03 04:55:55;;;;;;;6.40;4.00;;;;;;;0.82;90.40;103024.66;4957173;28;20038;-96
2023/04/03 04:58:23;;;;;;;6.25;3.50;;;;;;;0.84;90.49;103029.94;4972013;28;20019;-96
2023/04/03 05:01:18;;;;;;;7.97;3.90;;;;;;;0.84;90.35;103033.41;4970155;28;20035;-95
2023/04/03 05:03:47;;;;;;;6.60;3.33;;;;;;;0.82;91.03;103031.44;4886435;28;20040;-95
2023/04/03 05:06:12;;;;;;;6.00;3.47;;;;;;;0.78;90.84;103030.25;4940641;28;20031;-96
2023/04/03 05:08:38;;;;;;;6.82;3.70;;;;;;;0.77;91.18;103032.63;4958560;28;20023;-96
2023/04/03 05:11:03;;;;;;;6.10;3.45;;;;;;;0.78;90.79;103030.25;4944282;28;20027;-96
2023/04/03 05:13:32;;;;;;;7.93;3.78;;;;;;;0.80;91.44;103032.97;4940504;28;20033;-96
2023/04/03 05:15:57;;;;;;;6.82;3.38;;;;;;;0.78;91.15;103035.38;4937497;28;20037;-96
2023/04/03 05:18:29;;;;;;;6.88;3.53;;;;;;;0.77;90.87;103042.91;4940111;28;20023;-96
2023/04/03 05:20:54;;;;;;;7.68;3.53;;;;;;;0.78;91.40;103037.03;4974181;28;20023;-94
2023/04/03 05:23:26;;;;;;;7.57;3.35;;;;;;;0.80;91.37;103040.66;4939369;28;20046;-95
2023/04/03 05:25:52;;;;;;;6.72;3.28;;;;;;;0.81;91.69;103039.88;4972463;28;20113;-95
2023/04/03 05:28:20;;;;;;;6.70;3.20;;;;;;;0.82;90.72;103042.59;4938916;28;20031;-96
2023/04/03 05:30:54;;;;;;;6.30;3.17;;;;;;;0.80;91.64;103039.00;4959538;28;20391;-96
2023/04/03 05:33:26;;;;;;;7.93;3.30;;;;;;;0.82;91.56;103045.16;4949635;28;20026;-96
2023/04/03 05:35:54;;;;;;;12.65;4.00;;;;;;;0.83;90.80;103044.44;4943373;28;20043;-95
2023/04/03 05:38:31;;;;;;;8.95;3.35;;;;;;;0.84;91.22;103046.25;4966636;28;20027;-95
2023/04/03 05:40:57;;;;;;;9.15;3.00;;;;;;;0.83;91.54;103054.69;4956649;28;20024;-95
2023/04/03 05:43:25;;;;;;;7.40;2.92;;;;;;;0.85;91.17;103052.28;4942223;28;20031;-96
2023/04/03 05:45:52;;;;;;;9.07;3.20;;;;;;;0.86;91.57;103054.09;4958508;28;20503;-95
2023/04/03 05:48:18;;;;;;;6.60;3.15;;;;;;;0.84;92.16;103056.50;4947650;28;20019;-95
2023/04/03 05:50:43;;;;;;;6.50;3.40;;;;;;;0.81;92.54;103053.66;4974796;28;21444;-96
2023/04/03 05:53:34;;;;;;;5.88;3.38;;;;;;;0.81;92.47;103051.09;4982580;28;20038;-95
2023/04/03 05:56:00;;;;;;;7.20;2.92;;;;;;;0.80;92.54;103056.06;4954435;28;20073;-96
2023/04/03 05:58:28;;;;;;;7.15;3.45;;;;;;;0.82;92.46;103063.13;4962894;28;20034;-95
2023/04/03 06:00:54;;;;;;;6.13;3.20;;;;;;;0.83;92.31;103062.41;4962596;28;20035;-96
2023/04/03 06:03:22;;;;;;;6.95;3.13;;;;;;;0.84;92.58;103060.72;4974915;28;20046;-95
2023/04/03 06:05:53;;;;;;;6.68;3.20;;;;;;;0.87;92.90;103066.19;4968129;28;20039;-95
2023/04/03 06:08:27;;;;;;;5.38;3.15;;;;;;;0.92;92.71;103064.06;4955150;28;20027;-95
2023/04/03 06:10:52;;;;;;;6.93;3.50;;;;;;;0.95;92.50;103074.63;4954221;28;20492;-95
2023/04/03 06:13:47;;;;;;;6.47;3.22;;;;;;;0.97;91.81;103062.84;4959863;28;20033;-95
2023/04/03 06:16:15;;;;;;;7.70;3.60;;;;;;;0.99;92.52;103069.06;4976133;28;20046;-95
2023/04/03 06:18:41;;;;;;;6.45;3.50;;;;;;;1.02;92.13;103077.94;4959272;28;20050;-95
2023/04/03 06:21:07;;;;;;;8.40;3.35;;;;;;;1.07;92.75;103086.09;4962735;28;20110;-94
2023/04/03 06:23:33;;;;;;;7.88;3.03;;;;;;;1.11;92.24;103087.31;4956121;28;20027;-95
2023/04/03 06:25:58;;;;;;;7.45;3.30;;;;;;;1.15;91.49;103084.28;4956004;28;20496;-96
2023/04/03 06:28:24;;;;;;;6.40;2.90;;;;;;;1.22;92.45;103081.56;4961534;28;20031;-96
2023/04/03 06:30:49;;;;;;;8.18;3.08;;;;;;;1.28;91.87;103078.69;4964099;28;20410;-96
2023/04/03 06:33:20;;;;;;;8.52;3.40;;;;;;;1.36;92.53;103085.47;4966154;28;20488;-95
2023/04/03 06:35:49;;;;;;;7.30;3.25;;;;;;;1.44;92.73;103089.69;4956807;28;20114;-96
2023/04/03 06:38:15;;;;;;;7.00;3.07;;;;;;;1.54;92.32;103088.94;4971815;28;20030;-96
2023/04/03 06:40:40;;;;;;;6.75;3.00;;;;;;;1.64;91.17;103094.19;4956496;28;20576;-96
2023/04/03 06:43:07;;;;;;;6.70;3.10;;;;;;;1.73;91.43;103089.91;4963050;28;21440;-96
2023/04/03 06:45:46;;;;;;;7.15;3.05;;;;;;;1.83;90.77;103091.72;4983515;28;20023;-95
2023/04/03 06:48:12;;;;;;;5.35;3.05;;;;;;;1.94;90.68;103084.09;4957638;28;20088;-94
2023/04/03 06:50:38;;;;;;;8.50;3.03;;;;;;;2.06;90.79;103086.19;4957204;28;20089;-95
2023/04/03 06:53:04;;;;;;;6.57;3.03;;;;;;;2.17;90.21;103092.34;4996466;28;20043;-96
2023/04/03 06:55:32;;;;;;;9.60;3.30;;;;;;;2.23;89.94;103095.50;4967490;28;20034;-95
2023/04/03 06:57:57;;;;;;;6.47;3.38;;;;;;;2.32;88.81;103099.66;4992139;28;20039;-95
2023/04/03 07:00:26;;;;;;;7.32;3.00;;;;;;;2.37;89.48;103095.88;4959225;28;20018;-95
2023/04/03 07:02:54;;;;;;;8.43;3.33;;;;;;;2.45;87.69;103097.50;4958244;28;20089;-95
2023/04/03 07:05:22;;;;;;;7.80;3.28;;;;;;;2.55;88.17;103097.59;4956522;28;20034;-95
2023/04/03 07:07:51;;;;;;;6.32;3.40;;;;;;;2.68;88.23;103103.84;4959832;28;20040;-95
2023/04/03 07:10:17;;;;;;;7.07;3.30;;;;;;;2.79;88.57;103103.16;4956675;28;20035;-95
2023/04/03 07:12:47;;;;;;;8.82;3.60;;;;;;;2.89;86.50;103103.25;4962195;28;20030;-94
2023/04/03 07:15:13;;;;;;;6.93;3.03;;;;;;;2.96;85.82;103113.34;4981137;23;20169;-65
2023/04/03 07:17:40;;;;;;;8.25;3.25;;;;;;;3.02;86.31;103109.53;4988849;28;20450;-65
2023/04/03 07:20:06;;;;;;;9.13;3.72;;;;;;;3.08;85.00;103120.38;4982630;28;20038;-65
2023/04/03 07:22:31;;;;;;;6.45;3.47;;;;;;;3.12;85.42;103114.75;4987219;28;20108;-65
2023/04/03 07:24:56;;;;;;;6.68;3.15;;;;;;;3.19;85.29;103113.63;4985927;28;20461;-65
2023/04/03 07:27:22;;;;;;;7.90;3.40;;;;;;;3.27;85.18;103120.38;4988465;28;20121;-65
2023/04/03 07:29:48;;;;;;;6.57;3.22;;;;;;;3.36;85.20;103118.63;4985925;28;20057;-65
2023/04/03 07:32:14;;;;;;;6.63;3.35;;;;;;;3.46;83.99;103122.91;4988877;28;20034;-65
2023/04/03 07:34:40;;;;;;;8.43;3.05;;;;;;;3.54;83.57;103121.94;4988290;28;20041;-65
2023/04/03 07:37:06;;;;;;;8.23;3.53;;;;;;;3.69;84.96;103124.06;4988679;28;20038;-65
2023/04/03 07:39:32;;;;;;;6.68;2.92;;;;;;;3.78;82.96;103135.19;4987914;28;20457;-65
2023/04/03 07:41:57;;;;;;;5.93;2.85;;;;;;;3.93;83.71;103130.47;4984579;28;20041;-69
2023/04/03 07:44:28;;;;;;;7.03;2.78;;;;;;;4.00;81.45;103127.66;5004687;23;20046;-96
2023/04/03 07:46:55;;;;;;;5.28;2.63;;;;;;;4.08;81.05;103128.31;4969574;28;20086;-96
2023/04/03 07:49:22;;;;;;;5.63;2.80;;;;;;;4.13;81.19;103127.06;4960110;28;20117;-96
2023/04/03 07:51:52;;;;;;;6.80;2.50;;;;;;;4.16;79.70;103132.47;4963597;28;20046;-96
2023/04/03 07:54:28;;;;;;;6.75;2.65;;;;;;;4.15;79.24;103130.66;4961495;28;20081;-96
2023/04/03 07:57:00;;;;;;;7.65;3.10;;;;;;;4.18;79.98;103133.50;4963362;28;20031;-96
2023/04/03 07:59:25;;;;;;;7.75;3.08;;;;;;;4.27;80.37;103128.22;4961507;28;20041;-96
2023/04/03 08:01:54;;;;;;;6.18;2.65;;;;;;;4.42;80.14;103128.63;4960880;28;20042;-96
2023/04/03 08:04:25;;;;;;;7.60;3.28;;;;;;;4.59;79.81;103128.44;4972614;28;20030;-96
2023/04/03 08:06:51;;;;;;;7.00;3.17;;;;;;;4.73;79.26;103126.09;4962558;28;20034;-96
2023/04/03 08:09:17;;;;;;;6.03;3.08;;;;;;;4.86;78.28;103129.81;4961919;28;20115;-96
2023/04/03 08:11:44;;;;;;;5.15;2.30;;;;;;;4.91;74.96;103126.72;4961348;28;20027;-96
2023/04/03 08:14:15;;;;;;;5.40;2.70;;;;;;;4.92;78.27;103137.19;4962731;28;20388;-96
2023/04/03 08:16:47;;;;;;;7.57;2.70;;;;;;;5.00;77.34;103135.25;4961836;28;20436;-96
2023/04/03 08:19:19;;;;;;;7.72;2.70;;;;;;;5.09;78.42;103129.94;4960099;28;20026;-96
2023/04/03 08:21:50;;;;;;;7.78;3.13;;;;;;;5.28;78.22;103134.97;4960048;28;20022;-96
2023/04/03 08:24:15;;;;;;;7.18;3.05;;;;;;;5.43;77.03;103124.94;4960956;28;20481;-96
2023/04/03 08:26:43;;;;;;;8.50;3.00;;;;;;;5.62;76.93;103128.28;4959198;28;20064;-96
2023/04/03 08:29:09;;;;;;;5.78;2.63;;;;;;;5.85;75.12;103142.13;4977141;28;20448;-96
2023/04/03 08:31:39;;;;;;;5.45;2.53;;;;;;;6.03;75.31;103138.44;4960731;28;20042;-96
2023/04/03 08:34:05;;;;;;;5.70;2.40;;;;;;;6.15;73.15;103137.63;4958636;28;20082;-96
2023/04/03 08:36:30;;;;;;;5.38;2.63;;;;;;;6.11;73.18;103133.88;4978375;28;20030;-96
2023/04/03 08:39:02;;;;;;;6.35;2.90;;;;;;;6.23;75.74;103137.44;4959589;28;20055;-96
2023/04/03 08:41:46;;;;;;;5.07;2.30;;;;;;;6.51;72.77;103133.50;4977730;28;20051;-96
2023/04/03 08:44:49;;;;;;;6.55;2.70;;;;;;;6.64;74.10;103140.53;4974849;28;20051;-96
2023/04/03 08:47:25;;;;;;;6.80;2.65;;;;;;;6.83;73.47;103142.84;4961586;28;20113;-96
2023/04/03 08:50:00;;;;;;;7.32;2.30;;;;;;;6.99;70.04;103145.78;4958669;28;20030;-96
2023/04/03 08:52:28;;;;;;;5.65;2.17;;;;;;;7.08;68.68;103141.31;4959490;28;20034;-96
2023/04/03 08:54:59;;;;;;;4.40;2.20;;;;;;;7.03;67.78;103149.53;4960916;28;20022;-96
2023/04/03 08:57:34;;;;;;;5.25;2.20;;;;;;;7.16;66.75;103148.78;4959832;28;20037;-96
2023/04/03 09:00:07;;;;;;;5.30;2.08;;;;;;;7.24;66.31;103143.38;4958713;28;20039;-96
2023/04/03 09:02:42;;;;;;;5.20;2.38;;;;;;;7.26;65.23;103154.75;4961390;28;20045;-96
2023/04/03 09:05:32;;;;;;;4.60;2.00;;;;;;;7.29;64.47;103154.06;4959418;28;20034;-96
2023/04/03 09:08:08;;;;;;;5.97;2.45;;;;;;;7.39;61.14;103156.56;4958196;28;20092;-96
2023/04/03 09:10:41;;;;;;;5.35;1.90;;;;;;;7.32;60.70;103146.53;4955647;28;20023;-96
2023/04/03 09:13:40;;;;;;;4.30;1.92;;;;;;;7.26;61.65;103141.78;4960880;28;20043;-96
2023/04/03 09:16:25;;;;;;;4.18;1.77;;;;;;;7.42;62.10;103156.78;4948668;28;20046;-96
2023/04/03 09:19:10;;;;;;;4.43;2.00;;;;;;;7.55;61.80;103142.13;4961750;28;20027;-96
2023/04/03 09:21:42;;;;;;;4.22;1.55;;;;;;;7.79;56.39;103159.47;4960086;28;20039;-96
2023/04/03 09:24:11;;;;;;;4.00;1.67;;;;;;;7.88;58.43;103155.72;4960232;28;20041;-96
2023/04/03 09:26:51;;;;;;;6.13;2.03;;;;;;;8.11;59.94;103150.50;4960397;28;20027;-96
2023/04/03 09:29:24;;;;;;;5.18;1.90;;;;;;;8.30;58.53;103157.00;4960792;28;20030;-96
2023/04/03 09:31:57;;;;;;;4.63;1.50;;;;;;;8.29;54.20;103161.28;4961848;28;20034;-96
2023/04/03 09:34:30;;;;;;;4.32;1.48;;;;;;;8.14;54.36;103147.19;4960877;28;20684;-96
2023/04/03 09:37:06;;;;;;;3.75;1.40;;;;;;;8.17;55.17;103152.63;4964618;28;20511;-96
2023/04/03 09:39:51;;;;;;;3.28;1.20;;;;;;;8.41;56.01;103148.22;4964032;28;20050;-96
2023/04/03 09:42:24;;;;;;;2.35;1.10;;;;;;;8.66;53.90;103145.69;4964027;28;20026;-96
2023/04/03 09:45:00;;;;;;;3.13;1.27;;;;;;;8.77;52.49;103137.72;4981337;28;20042;-96
2023/04/03 09:47:39;;;;;;;2.45;1.30;;;;;;;8.76;51.97;103144.63;4967778;28;20034;-96
2023/04/03 09:50:20;;;;;;;2.90;1.30;;;;;;;8.74;53.63;103134.91;4968672;28;20037;-96
2023/04/03 09:52:49;;;;;;;2.88;1.15;;;;;;;8.73;49.88;103133.09;4969877;28;20288;-96
2023/04/03 09:55:17;;;;;;;6.47;1.60;;;;;;;8.78;49.40;103131.72;4972508;28;20018;-96
2023/04/03 09:57:46;;;;;;;2.85;1.25;;;;;;;8.74;48.33;103127.13;4968466;28;20043;-96
2023/04/03 10:00:30;;;;;;;2.47;1.08;;;;;;;8.67;49.30;103108.47;4971433;28;20050;-96
2023/04/03 10:03:04;;;;;;;2.00;0.90;;;;;;;8.62;47.51;103112.47;4973111;28;20050;-96
2023/04/03 10:05:39;;;;;;;1.80;0.90;;;;;;;8.50;43.97;103120.34;4977610;28;20035;-96
2023/04/03 10:08:20;;;;;;;2.45;0.80;;;;;;;8.40;46.16;103117.88;4979937;28;20027;-96
2023/04/03 10:11:23;;;;;;;1.83;0.80;;;;;;;8.32;47.89;103114.72;4982613;28;20026;-96
2023/04/03 10:14:04;;;;;;;3.65;1.08;;;;;;;8.28;47.01;103106.63;4991403;28;20027;-96
2023/04/03 10:17:03;;;;;;;3.38;1.02;;;;;;;8.33;48.91;103113.06;4988757;28;20010;-96
2023/04/03 10:19:39;;;;;;;2.42;0.90;;;;;;;8.39;46.97;103113.47;4989342;28;20034;-96
2023/04/03 10:22:18;;;;;;;2.38;0.85;;;;;;;8.47;47.63;103122.75;4987495;28;20039;-96
2023/04/03 10:24:48;;;;;;;;;;;;;;;8.57;51.59;103116.44;4990629;28;20065;-96
2023/04/03 10:28:00;;;;;;;2.58;1.05;;;;;;;8.65;50.35;103104.00;4989252;28;19925;-96
2023/04/03 10:30:40;;;;;;;2.58;0.80;;;;;;;8.72;46.22;103100.09;4903863;29;20036;-96
2023/04/03 10:33:48;;;;;;;2.20;0.80;;;;;;;8.78;47.48;103100.53;4885926;29;20018;-96
2023/04/03 10:39:10;;;;;;;2.65;1.00;;;;;;;9.10;46.58;103088.78;5000919;28;20446;-68
2023/04/03 10:42:02;;;;;;;2.38;0.88;;;;;;;9.25;44.05;103083.66;5002788;28;20490;-69
2023/04/03 10:44:42;;;;;;;3.03;1.05;;;;;;;9.27;41.83;103077.78;5003175;28;20046;-68
2023/04/03 10:47:20;;;;;;;2.25;0.70;;;;;;;9.11;40.60;103086.28;5002631;28;20042;-68
2023/04/03 10:50:13;;;;;;;3.22;0.80;;;;;;;9.05;44.04;103081.56;5002335;28;20552;-68
2023/04/03 10:52:53;;;;;;;2.65;0.80;;;;;;;9.04;44.21;103073.66;5002899;28;20041;-68
2023/04/03 10:55:35;;;;;;;2.40;0.80;;;;;;;9.09;45.96;103067.06;5002415;28;20022;-68
2023/04/03 10:58:02;;;;;;;3.58;1.00;;;;;;;9.20;44.21;103066.06;4998144;28;20022;-68
2023/04/03 11:00:45;;;;;;;2.47;0.80;;;;;;;9.20;43.80;103073.84;5002907;28;20045;-68
2023/04/03 11:03:26;;;;;;;3.05;0.90;;;;;;;9.15;41.53;103072.69;5003167;28;20030;-68
2023/04/03 11:05:54;;;;;;;3.13;1.02;;;;;;;9.28;40.59;103057.84;5002459;28;20454;-68
2023/04/03 11:08:37;;;;;;;5.00;0.90;;;;;;;9.42;44.11;103061.34;5003120;28;21146;-68
2023/04/03 11:11:08;;;;;;;2.95;0.90;;;;;;;9.71;45.03;103058.88;5002532;28;20474;-69
2023/04/03 11:13:40;;;;;;;3.10;1.00;;;;;;;9.84;39.91;103044.94;5000691;28;20341;-69
2023/04/03 11:16:07;;;;;;;3.05;0.98;;;;;;;9.86;40.81;103051.16;5002530;28;20030;-68
2023/04/03 11:18:49;;;;;;;3.90;0.90;;;;;;;9.84;43.61;103057.94;5002963;28;20029;-69
2023/04/03 11:21:29;;;;;;;1.85;0.80;;;;;;;9.77;40.88;103050.56;5002356;28;20026;-69
2023/04/03 11:23:58;;;;;;;3.38;0.90;;;;;;;9.74;40.10;103050.38;4987297;28;20041;-68
2023/04/03 11:26:32;;;;;;;2.73;1.03;;;;;;;9.69;41.18;103046.56;5002525;28;20037;-68
2023/04/03 11:29:06;;;;;;;3.63;0.80;;;;;;;9.70;40.55;103028.47;5002385;28;20280;-68
2023/04/03 11:31:57;;;;;;;3.42;1.10;;;;;;;9.76;40.80;103030.53;5002829;28;20026;-69
2023/04/03 11:34:28;;;;;;;2.15;0.80;;;;;;;9.80;40.70;103026.41;4988498;28;20036;-69
2023/04/03 11:36:57;;;;;;;2.50;1.10;;;;;;;9.94;42.54;103028.16;5002256;28;20053;-69
2023/04/03 11:39:33;;;;;;;2.45;0.63;;;;;;;9.98;39.28;103024.94;4997513;28;20026;-68
2023/04/03 11:42:25;;;;;;;2.97;1.02;;;;;;;10.00;41.59;103028.53;5002241;28;20072;-68
2023/04/03 11:44:50;;;;;;;2.58;0.90;;;;;;;10.04;42.02;103024.44;5002047;28;20022;-68
2023/04/03 11:47:48;;;;;;;2.15;0.80;;;;;;;10.15;40.98;103019.84;4982545;28;20021;-68
2023/04/03 11:50:40;;;;;;;3.53;1.00;;;;;;;10.29;42.88;103020.69;5002016;28;20029;-68
2023/04/03 11:53:05;;;;;;;3.45;0.85;;;;;;;10.40;40.44;103019.69;5002529;28;20018;-68